Idlewood, Illinois
Current Conditions -  °F | °C
As of 8:55 PM on Monday 22 Dec 2014 (Local Time) from KMVN Reporting Station
Overcast Overcast  
Wind Chill: 50°   Ceiling: 600
Heat Index: 50°   Visibility: 5mi
Dew Point: 46°   Wind: 9mph
Humidity: 87%   Direction: 160°SSE
Pressure: 29.59"   Gusts: NA
Location:  38.3147°N, 88.9065°W
Report Text: KMVN 230255Z AUTO 16008KT 5SM OVC006 10/08 A2959 RMK AO1 P0001 60002 57003
Loading
Personal Weather Stations






























Interactive Weather Map New forecast layout! Learn more

10-Day Weather Forecast

Advertisements
Track Severe Weather on mobile